sensor_id;sensor_type;location;lat;lon;timestamp;temperature;humidity
67186;HTU21D;54116;53.518;49.398;2023-12-14T01:12:27;-22.60;118.99
67186;HTU21D;54116;53.518;49.398;2023-12-14T01:20:11;-22.50;118.99
67186;HTU21D;54116;53.518;49.398;2023-12-14T02:12:57;-22.41;118.99
67186;HTU21D;54116;53.518;49.398;2023-12-14T02:29:26;-22.38;118.99
67186;HTU21D;54116;53.518;49.398;2023-12-14T02:38:29;-22.32;118.99
67186;HTU21D;54116;53.518;49.398;2023-12-14T02:45:31;-22.27;118.99
67186;HTU21D;54116;53.518;49.398;2023-12-14T02:47:57;-22.33;118.99
67186;HTU21D;54116;53.518;49.398;2023-12-14T02:52:38;-22.25;118.99
67186;HTU21D;54116;53.518;49.398;2023-12-14T02:55:04;-22.33;118.99
67186;HTU21D;54116;53.518;49.398;2023-12-14T02:57:30;-22.30;118.99
67186;HTU21D;54116;53.518;49.398;2023-12-14T02:59:56;-22.36;118.99
67186;HTU21D;54116;53.518;49.398;2023-12-14T03:02:22;-22.29;118.99
67186;HTU21D;54116;53.518;49.398;2023-12-14T03:04:48;-22.32;118.99
67186;HTU21D;54116;53.518;49.398;2023-12-14T03:07:14;-22.33;118.99
67186;HTU21D;54116;53.518;49.398;2023-12-14T03:09:40;-22.31;118.99
67186;HTU21D;54116;53.518;49.398;2023-12-14T03:12:10;-22.28;118.99
67186;HTU21D;54116;53.518;49.398;2023-12-14T03:14:37;-22.33;118.99
67186;HTU21D;54116;53.518;49.398;2023-12-14T03:17:03;-22.39;118.99
67186;HTU21D;54116;53.518;49.398;2023-12-14T03:19:29;-22.34;118.99
67186;HTU21D;54116;53.518;49.398;2023-12-14T03:26:44;-22.34;118.99
67186;HTU21D;54116;53.518;49.398;2023-12-14T03:29:10;-22.28;118.99
67186;HTU21D;54116;53.518;49.398;2023-12-14T03:31:36;-22.30;118.99
67186;HTU21D;54116;53.518;49.398;2023-12-14T03:34:02;-22.28;118.99
67186;HTU21D;54116;53.518;49.398;2023-12-14T03:36:28;-22.23;118.99
67186;HTU21D;54116;53.518;49.398;2023-12-14T03:38:54;-22.21;118.99
67186;HTU21D;54116;53.518;49.398;2023-12-14T03:41:20;-22.28;118.99
67186;HTU21D;54116;53.518;49.398;2023-12-14T03:43:46;-22.32;118.99
67186;HTU21D;54116;53.518;49.398;2023-12-14T03:46:12;-22.28;118.99
67186;HTU21D;54116;53.518;49.398;2023-12-14T03:50:50;-22.23;118.99
67186;HTU21D;54116;53.518;49.398;2023-12-14T03:53:16;-22.20;118.99
67186;HTU21D;54116;53.518;49.398;2023-12-14T04:02:23;-22.15;118.99
67186;HTU21D;54116;53.518;49.398;2023-12-14T04:04:49;-22.25;118.99
67186;HTU21D;54116;53.518;49.398;2023-12-14T04:07:15;-22.24;118.99
67186;HTU21D;54116;53.518;49.398;2023-12-14T04:11:58;-22.24;118.99
67186;HTU21D;54116;53.518;49.398;2023-12-14T04:14:24;-22.20;118.99
67186;HTU21D;54116;53.518;49.398;2023-12-14T04:16:50;-22.24;118.99
67186;HTU21D;54116;53.518;49.398;2023-12-14T04:19:16;-22.25;118.99
67186;HTU21D;54116;53.518;49.398;2023-12-14T04:23:55;-22.24;118.99
67186;HTU21D;54116;53.518;49.398;2023-12-14T04:26:21;-22.27;118.99
67186;HTU21D;54116;53.518;49.398;2023-12-14T04:28:47;-22.31;118.99
67186;HTU21D;54116;53.518;49.398;2023-12-14T04:31:13;-22.29;118.99
67186;HTU21D;54116;53.518;49.398;2023-12-14T04:33:39;-22.32;118.99
67186;HTU21D;54116;53.518;49.398;2023-12-14T04:36:05;-22.33;118.99
67186;HTU21D;54116;53.518;49.398;2023-12-14T04:38:32;-22.35;118.99
67186;HTU21D;54116;53.518;49.398;2023-12-14T04:40:59;-22.38;118.99
67186;HTU21D;54116;53.518;49.398;2023-12-14T04:43:25;-22.30;118.99
67186;HTU21D;54116;53.518;49.398;2023-12-14T04:45:51;-22.24;118.99
67186;HTU21D;54116;53.518;49.398;2023-12-14T04:48:17;-22.29;118.99
67186;HTU21D;54116;53.518;49.398;2023-12-14T04:52:54;-22.30;118.99
67186;HTU21D;54116;53.518;49.398;2023-12-14T04:55:20;-22.23;118.99
67186;HTU21D;54116;53.518;49.398;2023-12-14T04:57:47;-22.29;118.99
67186;HTU21D;54116;53.518;49.398;2023-12-14T05:00:15;-22.32;118.99
67186;HTU21D;54116;53.518;49.398;2023-12-14T05:04:57;-22.30;118.99
67186;HTU21D;54116;53.518;49.398;2023-12-14T05:09:45;-22.27;118.99
67186;HTU21D;54116;53.518;49.398;2023-12-14T05:14:31;-22.24;118.99
67186;HTU21D;54116;53.518;49.398;2023-12-14T05:16:57;-22.28;118.99
67186;HTU21D;54116;53.518;49.398;2023-12-14T05:21:35;-22.27;118.99
67186;HTU21D;54116;53.518;49.398;2023-12-14T05:26:19;-22.25;118.99
67186;HTU21D;54116;53.518;49.398;2023-12-14T05:28:46;-22.21;118.99
67186;HTU21D;54116;53.518;49.398;2023-12-14T05:31:12;-22.19;118.99
67186;HTU21D;54116;53.518;49.398;2023-12-14T05:33:38;-22.14;118.99
67186;HTU21D;54116;53.518;49.398;2023-12-14T05:36:05;-22.18;118.99
67186;HTU21D;54116;53.518;49.398;2023-12-14T05:38:38;-22.05;118.99
67186;HTU21D;54116;53.518;49.398;2023-12-14T05:41:04;-22.03;118.99
67186;HTU21D;54116;53.518;49.398;2023-12-14T05:43:30;-22.04;118.99
67186;HTU21D;54116;53.518;49.398;2023-12-14T05:45:56;-22.09;118.99
67186;HTU21D;54116;53.518;49.398;2023-12-14T05:48:23;-22.05;118.99
67186;HTU21D;54116;53.518;49.398;2023-12-14T05:50:50;-22.05;118.99
67186;HTU21D;54116;53.518;49.398;2023-12-14T05:53:17;-22.02;118.99
67186;HTU21D;54116;53.518;49.398;2023-12-14T05:55:43;-21.90;118.99
67186;HTU21D;54116;53.518;49.398;2023-12-14T05:58:09;-21.88;118.99
67186;HTU21D;54116;53.518;49.398;2023-12-14T06:00:35;-21.81;118.99
67186;HTU21D;54116;53.518;49.398;2023-12-14T06:03:02;-21.88;118.99
67186;HTU21D;54116;53.518;49.398;2023-12-14T06:05:28;-21.89;118.99
67186;HTU21D;54116;53.518;49.398;2023-12-14T06:07:54;-21.87;118.99
67186;HTU21D;54116;53.518;49.398;2023-12-14T06:10:20;-21.85;118.99
67186;HTU21D;54116;53.518;49.398;2023-12-14T06:12:47;-21.89;118.99
67186;HTU21D;54116;53.518;49.398;2023-12-14T06:15:13;-21.85;118.99
67186;HTU21D;54116;53.518;49.398;2023-12-14T06:17:39;-21.79;118.99
67186;HTU21D;54116;53.518;49.398;2023-12-14T06:20:08;-21.90;118.99
67186;HTU21D;54116;53.518;49.398;2023-12-14T06:22:37;-21.94;118.99
67186;HTU21D;54116;53.518;49.398;2023-12-14T06:25:04;-21.81;118.99
67186;HTU21D;54116;53.518;49.398;2023-12-14T06:27:31;-21.79;118.99
67186;HTU21D;54116;53.518;49.398;2023-12-14T06:29:57;-21.81;118.99
67186;HTU21D;54116;53.518;49.398;2023-12-14T06:32:23;-21.76;118.99
67186;HTU21D;54116;53.518;49.398;2023-12-14T06:34:50;-21.67;118.99
67186;HTU21D;54116;53.518;49.398;2023-12-14T06:37:16;-21.64;118.99
67186;HTU21D;54116;53.518;49.398;2023-12-14T06:44:10;-21.71;118.99
67186;HTU21D;54116;53.518;49.398;2023-12-14T06:53:22;-21.69;118.99
67186;HTU21D;54116;53.518;49.398;2023-12-14T06:58:08;-21.65;118.99
67186;HTU21D;54116;53.518;49.398;2023-12-14T07:00:37;-21.66;118.99
67186;HTU21D;54116;53.518;49.398;2023-12-14T07:03:03;-21.66;118.99
67186;HTU21D;54116;53.518;49.398;2023-12-14T07:05:29;-21.65;118.99
67186;HTU21D;54116;53.518;49.398;2023-12-14T07:07:55;-21.70;118.99
67186;HTU21D;54116;53.518;49.398;2023-12-14T07:10:22;-21.60;118.99
67186;HTU21D;54116;53.518;49.398;2023-12-14T07:12:48;-21.59;118.99
67186;HTU21D;54116;53.518;49.398;2023-12-14T07:15:14;-21.61;118.99
67186;HTU21D;54116;53.518;49.398;2023-12-14T07:17:40;-21.62;118.99
67186;HTU21D;54116;53.518;49.398;2023-12-14T07:20:07;-21.60;118.99
67186;HTU21D;54116;53.518;49.398;2023-12-14T07:22:33;-21.56;118.99
67186;HTU21D;54116;53.518;49.398;2023-12-14T07:24:59;-21.54;118.99
67186;HTU21D;54116;53.518;49.398;2023-12-14T07:27:25;-21.41;118.99
67186;HTU21D;54116;53.518;49.398;2023-12-14T07:29:51;-21.33;118.99
67186;HTU21D;54116;53.518;49.398;2023-12-14T07:32:17;-21.30;118.99
67186;HTU21D;54116;53.518;49.398;2023-12-14T07:34:43;-21.45;118.99
67186;HTU21D;54116;53.518;49.398;2023-12-14T07:37:10;-21.31;118.99
67186;HTU21D;54116;53.518;49.398;2023-12-14T07:39:37;-21.33;118.99
67186;HTU21D;54116;53.518;49.398;2023-12-14T07:42:03;-21.37;118.99
67186;HTU21D;54116;53.518;49.398;2023-12-14T07:44:30;-21.36;118.99
67186;HTU21D;54116;53.518;49.398;2023-12-14T07:46:58;-21.37;118.99
67186;HTU21D;54116;53.518;49.398;2023-12-14T07:49:25;-21.26;118.99
67186;HTU21D;54116;53.518;49.398;2023-12-14T07:51:51;-21.31;118.99
67186;HTU21D;54116;53.518;49.398;2023-12-14T07:54:17;-21.38;118.99
67186;HTU21D;54116;53.518;49.398;2023-12-14T07:56:44;-21.30;118.99
67186;HTU21D;54116;53.518;49.398;2023-12-14T07:59:10;-21.22;118.99
67186;HTU21D;54116;53.518;49.398;2023-12-14T08:01:37;-21.21;118.99
67186;HTU21D;54116;53.518;49.398;2023-12-14T08:04:03;-21.21;118.99
67186;HTU21D;54116;53.518;49.398;2023-12-14T08:06:31;-21.17;118.99
67186;HTU21D;54116;53.518;49.398;2023-12-14T08:08:57;-21.17;118.99
67186;HTU21D;54116;53.518;49.398;2023-12-14T08:11:26;-21.20;118.99
67186;HTU21D;54116;53.518;49.398;2023-12-14T08:13:52;-21.12;118.99
67186;HTU21D;54116;53.518;49.398;2023-12-14T08:16:19;-21.17;118.99
67186;HTU21D;54116;53.518;49.398;2023-12-14T08:18:45;-21.12;118.99
67186;HTU21D;54116;53.518;49.398;2023-12-14T08:21:14;-21.17;118.99
67186;HTU21D;54116;53.518;49.398;2023-12-14T08:25:59;-21.16;118.99
67186;HTU21D;54116;53.518;49.398;2023-12-14T08:32:56;-21.23;118.99
67186;HTU21D;54116;53.518;49.398;2023-12-14T08:35:22;-21.30;118.99
67186;HTU21D;54116;53.518;49.398;2023-12-14T08:37:48;-21.22;118.99
67186;HTU21D;54116;53.518;49.398;2023-12-14T08:40:15;-21.20;118.99
67186;HTU21D;54116;53.518;49.398;2023-12-14T08:42:41;-21.20;118.99
67186;HTU21D;54116;53.518;49.398;2023-12-14T08:45:08;-21.11;118.99
67186;HTU21D;54116;53.518;49.398;2023-12-14T08:52:11;-21.10;118.99
67186;HTU21D;54116;53.518;49.398;2023-12-14T08:54:40;-21.05;118.99
67186;HTU21D;54116;53.518;49.398;2023-12-14T08:57:08;-21.09;118.99
67186;HTU21D;54116;53.518;49.398;2023-12-14T08:59:34;-21.00;118.99
67186;HTU21D;54116;53.518;49.398;2023-12-14T09:02:00;-20.92;118.99
67186;HTU21D;54116;53.518;49.398;2023-12-14T09:04:27;-20.97;118.99
67186;HTU21D;54116;53.518;49.398;2023-12-14T09:06:53;-20.93;118.99
67186;HTU21D;54116;53.518;49.398;2023-12-14T09:09:19;-20.99;118.99
67186;HTU21D;54116;53.518;49.398;2023-12-14T09:11:45;-21.08;118.99
67186;HTU21D;54116;53.518;49.398;2023-12-14T09:14:11;-21.01;118.99
67186;HTU21D;54116;53.518;49.398;2023-12-14T09:16:39;-21.07;118.99
67186;HTU21D;54116;53.518;49.398;2023-12-14T09:19:05;-21.07;118.99
67186;HTU21D;54116;53.518;49.398;2023-12-14T09:21:31;-21.00;118.99
67186;HTU21D;54116;53.518;49.398;2023-12-14T09:23:58;-20.98;118.99
67186;HTU21D;54116;53.518;49.398;2023-12-14T09:26:24;-21.03;118.99
67186;HTU21D;54116;53.518;49.398;2023-12-14T09:28:50;-21.02;118.99
67186;HTU21D;54116;53.518;49.398;2023-12-14T09:31:16;-21.00;118.99
67186;HTU21D;54116;53.518;49.398;2023-12-14T09:33:42;-20.96;118.99
67186;HTU21D;54116;53.518;49.398;2023-12-14T09:36:08;-20.95;118.99
67186;HTU21D;54116;53.518;49.398;2023-12-14T09:38:34;-20.92;118.99
67186;HTU21D;54116;53.518;49.398;2023-12-14T09:41:02;-20.88;118.99
67186;HTU21D;54116;53.518;49.398;2023-12-14T09:43:28;-20.90;118.99
67186;HTU21D;54116;53.518;49.398;2023-12-14T09:45:55;-20.85;118.99
67186;HTU21D;54116;53.518;49.398;2023-12-14T09:48:22;-20.76;118.99
67186;HTU21D;54116;53.518;49.398;2023-12-14T09:50:50;-20.78;118.99
67186;HTU21D;54116;53.518;49.398;2023-12-14T09:53:16;-20.78;118.99
67186;HTU21D;54116;53.518;49.398;2023-12-14T09:55:42;-20.73;118.99
67186;HTU21D;54116;53.518;49.398;2023-12-14T09:58:08;-20.67;118.99
67186;HTU21D;54116;53.518;49.398;2023-12-14T10:00:38;-20.76;118.99
67186;HTU21D;54116;53.518;49.398;2023-12-14T10:03:27;-20.67;118.99
67186;HTU21D;54116;53.518;49.398;2023-12-14T10:05:54;-20.83;118.99
67186;HTU21D;54116;53.518;49.398;2023-12-14T10:08:25;-20.80;118.99
67186;HTU21D;54116;53.518;49.398;2023-12-14T10:10:54;-20.82;118.99
67186;HTU21D;54116;53.518;49.398;2023-12-14T10:13:23;-20.84;118.99
67186;HTU21D;54116;53.518;49.398;2023-12-14T10:16:01;-20.70;118.99
67186;HTU21D;54116;53.518;49.398;2023-12-14T10:18:27;-20.55;118.99
67186;HTU21D;54116;53.518;49.398;2023-12-14T10:20:54;-20.75;118.99
67186;HTU21D;54116;53.518;49.398;2023-12-14T10:23:21;-20.72;118.99
67186;HTU21D;54116;53.518;49.398;2023-12-14T10:25:48;-20.69;118.99
67186;HTU21D;54116;53.518;49.398;2023-12-14T10:28:14;-20.88;118.99
67186;HTU21D;54116;53.518;49.398;2023-12-14T10:30:41;-20.69;118.99
67186;HTU21D;54116;53.518;49.398;2023-12-14T10:33:07;-20.91;118.99
67186;HTU21D;54116;53.518;49.398;2023-12-14T10:35:33;-20.87;118.99
67186;HTU21D;54116;53.518;49.398;2023-12-14T10:38:02;-20.77;118.99
67186;HTU21D;54116;53.518;49.398;2023-12-14T10:40:31;-20.85;118.99
67186;HTU21D;54116;53.518;49.398;2023-12-14T10:43:01;-20.94;118.99
67186;HTU21D;54116;53.518;49.398;2023-12-14T10:45:32;-20.94;118.99
67186;HTU21D;54116;53.518;49.398;2023-12-14T10:47:59;-20.95;118.99
67186;HTU21D;54116;53.518;49.398;2023-12-14T10:50:29;-20.88;118.99
67186;HTU21D;54116;53.518;49.398;2023-12-14T10:52:59;-20.99;118.99
67186;HTU21D;54116;53.518;49.398;2023-12-14T10:55:37;-21.00;118.99
67186;HTU21D;54116;53.518;49.398;2023-12-14T10:58:08;-20.99;118.99
67186;HTU21D;54116;53.518;49.398;2023-12-14T11:00:34;-20.97;118.99
67186;HTU21D;54116;53.518;49.398;2023-12-14T11:03:04;-21.03;118.99
67186;HTU21D;54116;53.518;49.398;2023-12-14T11:05:33;-21.05;118.99
67186;HTU21D;54116;53.518;49.398;2023-12-14T11:10:52;-21.02;118.99
67186;HTU21D;54116;53.518;49.398;2023-12-14T11:13:21;-21.06;118.99
67186;HTU21D;54116;53.518;49.398;2023-12-14T11:15:50;-21.09;118.99
67186;HTU21D;54116;53.518;49.398;2023-12-14T11:18:24;-21.05;118.99
67186;HTU21D;54116;53.518;49.398;2023-12-14T11:20:55;-21.03;118.99
67186;HTU21D;54116;53.518;49.398;2023-12-14T11:25:57;-21.09;118.99
67186;HTU21D;54116;53.518;49.398;2023-12-14T11:28:24;-21.10;118.99
67186;HTU21D;54116;53.518;49.398;2023-12-14T11:30:50;-21.20;118.99
67186;HTU21D;54116;53.518;49.398;2023-12-14T11:33:17;-21.23;118.99
67186;HTU21D;54116;53.518;49.398;2023-12-14T11:35:43;-21.22;118.99
67186;HTU21D;54116;53.518;49.398;2023-12-14T11:38:09;-21.23;118.99
67186;HTU21D;54116;53.518;49.398;2023-12-14T11:40:39;-21.18;118.99
67186;HTU21D;54116;53.518;49.398;2023-12-14T11:43:06;-21.25;118.99
67186;HTU21D;54116;53.518;49.398;2023-12-14T11:45:37;-21.26;118.99
67186;HTU21D;54116;53.518;49.398;2023-12-14T11:48:05;-21.28;118.99
67186;HTU21D;54116;53.518;49.398;2023-12-14T11:50:32;-21.21;118.99
67186;HTU21D;54116;53.518;49.398;2023-12-14T11:53:02;-21.36;118.99
67186;HTU21D;54116;53.518;49.398;2023-12-14T11:55:33;-21.37;118.99
67186;HTU21D;54116;53.518;49.398;2023-12-14T11:57:59;-21.36;118.99
67186;HTU21D;54116;53.518;49.398;2023-12-14T12:00:27;-21.30;118.99
67186;HTU21D;54116;53.518;49.398;2023-12-14T12:03:07;-21.38;118.99
67186;HTU21D;54116;53.518;49.398;2023-12-14T12:05:47;-21.36;118.99
67186;HTU21D;54116;53.518;49.398;2023-12-14T12:08:15;-21.31;118.99
67186;HTU21D;54116;53.518;49.398;2023-12-14T12:10:44;-21.32;118.99
67186;HTU21D;54116;53.518;49.398;2023-12-14T12:15:38;-21.38;118.99
67186;HTU21D;54116;53.518;49.398;2023-12-14T12:18:07;-21.37;118.99
67186;HTU21D;54116;53.518;49.398;2023-12-14T12:20:34;-21.30;118.99
67186;HTU21D;54116;53.518;49.398;2023-12-14T12:23:01;-21.32;118.99
67186;HTU21D;54116;53.518;49.398;2023-12-14T12:25:27;-21.38;118.99
67186;HTU21D;54116;53.518;49.398;2023-12-14T12:27:57;-21.36;118.99
67186;HTU21D;54116;53.518;49.398;2023-12-14T12:30:24;-21.37;118.99
67186;HTU21D;54116;53.518;49.398;2023-12-14T12:32:50;-21.42;118.99
67186;HTU21D;54116;53.518;49.398;2023-12-14T12:35:22;-21.32;118.99
67186;HTU21D;54116;53.518;49.398;2023-12-14T12:37:49;-21.39;118.99
67186;HTU21D;54116;53.518;49.398;2023-12-14T12:40:20;-21.47;118.99
67186;HTU21D;54116;53.518;49.398;2023-12-14T12:42:47;-21.46;118.99
67186;HTU21D;54116;53.518;49.398;2023-12-14T12:45:16;-21.45;118.99
67186;HTU21D;54116;53.518;49.398;2023-12-14T12:47:53;-21.32;118.99
67186;HTU21D;54116;53.518;49.398;2023-12-14T12:50:20;-21.40;118.99
67186;HTU21D;54116;53.518;49.398;2023-12-14T12:52:46;-21.38;118.99
67186;HTU21D;54116;53.518;49.398;2023-12-14T12:55:15;-21.37;118.99
67186;HTU21D;54116;53.518;49.398;2023-12-14T12:57:41;-21.36;118.99
67186;HTU21D;54116;53.518;49.398;2023-12-14T13:00:08;-21.31;118.99
67186;HTU21D;54116;53.518;49.398;2023-12-14T13:02:38;-21.29;118.99
67186;HTU21D;54116;53.518;49.398;2023-12-14T13:05:06;-21.25;118.99
67186;HTU21D;54116;53.518;49.398;2023-12-14T13:07:34;-21.35;118.99
67186;HTU21D;54116;53.518;49.398;2023-12-14T13:10:00;-21.30;118.99
67186;HTU21D;54116;53.518;49.398;2023-12-14T13:12:27;-21.30;118.99
67186;HTU21D;54116;53.518;49.398;2023-12-14T13:14:53;-21.30;118.99
67186;HTU21D;54116;53.518;49.398;2023-12-14T13:17:19;-21.26;118.99
67186;HTU21D;54116;53.518;49.398;2023-12-14T13:19:45;-21.31;118.99
67186;HTU21D;54116;53.518;49.398;2023-12-14T13:22:11;-21.30;118.99
67186;HTU21D;54116;53.518;49.398;2023-12-14T13:24:38;-21.25;118.99
67186;HTU21D;54116;53.518;49.398;2023-12-14T13:27:04;-21.35;118.99
67186;HTU21D;54116;53.518;49.398;2023-12-14T13:29:32;-21.27;118.99
67186;HTU21D;54116;53.518;49.398;2023-12-14T13:32:00;-21.33;118.99
67186;HTU21D;54116;53.518;49.398;2023-12-14T13:34:27;-21.24;118.99
67186;HTU21D;54116;53.518;49.398;2023-12-14T13:36:57;-21.32;118.99
67186;HTU21D;54116;53.518;49.398;2023-12-14T13:39:26;-21.27;118.99
67186;HTU21D;54116;53.518;49.398;2023-12-14T13:41:53;-21.32;118.99
67186;HTU21D;54116;53.518;49.398;2023-12-14T13:44:19;-21.30;118.99
67186;HTU21D;54116;53.518;49.398;2023-12-14T13:46:45;-21.29;118.99
67186;HTU21D;54116;53.518;49.398;2023-12-14T13:49:11;-21.31;118.99
67186;HTU21D;54116;53.518;49.398;2023-12-14T13:51:37;-21.32;118.99
67186;HTU21D;54116;53.518;49.398;2023-12-14T13:54:03;-21.29;118.99
67186;HTU21D;54116;53.518;49.398;2023-12-14T13:56:30;-21.31;118.99
67186;HTU21D;54116;53.518;49.398;2023-12-14T13:58:56;-21.28;118.99
67186;HTU21D;54116;53.518;49.398;2023-12-14T14:01:22;-21.24;118.99
67186;HTU21D;54116;53.518;49.398;2023-12-14T14:03:48;-21.24;118.99
67186;HTU21D;54116;53.518;49.398;2023-12-14T14:06:14;-21.24;118.99
67186;HTU21D;54116;53.518;49.398;2023-12-14T14:08:40;-21.11;118.99
67186;HTU21D;54116;53.518;49.398;2023-12-14T14:11:06;-21.12;118.99
67186;HTU21D;54116;53.518;49.398;2023-12-14T14:13:32;-21.13;118.99
67186;HTU21D;54116;53.518;49.398;2023-12-14T14:15:59;-21.07;118.99
67186;HTU21D;54116;53.518;49.398;2023-12-14T14:18:25;-21.08;118.99
67186;HTU21D;54116;53.518;49.398;2023-12-14T14:20:51;-21.03;118.99
67186;HTU21D;54116;53.518;49.398;2023-12-14T14:23:17;-21.01;118.99
67186;HTU21D;54116;53.518;49.398;2023-12-14T14:25:44;-21.06;118.99
67186;HTU21D;54116;53.518;49.398;2023-12-14T14:28:11;-20.99;118.99
67186;HTU21D;54116;53.518;49.398;2023-12-14T14:30:37;-21.06;118.99
67186;HTU21D;54116;53.518;49.398;2023-12-14T14:33:04;-21.07;118.99
67186;HTU21D;54116;53.518;49.398;2023-12-14T14:35:32;-21.09;118.99
67186;HTU21D;54116;53.518;49.398;2023-12-14T14:37:59;-21.09;118.99
67186;HTU21D;54116;53.518;49.398;2023-12-14T14:40:26;-21.14;118.99
67186;HTU21D;54116;53.518;49.398;2023-12-14T14:42:53;-21.09;118.99
67186;HTU21D;54116;53.518;49.398;2023-12-14T14:45:19;-21.16;118.99
67186;HTU21D;54116;53.518;49.398;2023-12-14T14:47:45;-21.25;118.99
67186;HTU21D;54116;53.518;49.398;2023-12-14T14:50:11;-21.27;118.99
67186;HTU21D;54116;53.518;49.398;2023-12-14T14:52:37;-21.26;118.99
67186;HTU21D;54116;53.518;49.398;2023-12-14T14:55:04;-21.27;118.99
67186;HTU21D;54116;53.518;49.398;2023-12-14T14:57:30;-21.25;118.99
67186;HTU21D;54116;53.518;49.398;2023-12-14T14:59:58;-21.23;118.99
67186;HTU21D;54116;53.518;49.398;2023-12-14T15:02:25;-21.31;118.99
67186;HTU21D;54116;53.518;49.398;2023-12-14T15:04:51;-21.40;118.99
67186;HTU21D;54116;53.518;49.398;2023-12-14T15:07:17;-21.46;118.99
67186;HTU21D;54116;53.518;49.398;2023-12-14T15:09:44;-21.53;118.99
67186;HTU21D;54116;53.518;49.398;2023-12-14T15:12:10;-21.71;118.99
67186;HTU21D;54116;53.518;49.398;2023-12-14T15:14:36;-21.71;118.99
67186;HTU21D;54116;53.518;49.398;2023-12-14T15:17:02;-21.82;118.99
67186;HTU21D;54116;53.518;49.398;2023-12-14T15:19:28;-21.81;118.99
67186;HTU21D;54116;53.518;49.398;2023-12-14T15:21:55;-21.85;118.99
67186;HTU21D;54116;53.518;49.398;2023-12-14T15:24:21;-21.89;118.99
67186;HTU21D;54116;53.518;49.398;2023-12-14T15:26:48;-21.99;118.99
67186;HTU21D;54116;53.518;49.398;2023-12-14T15:29:15;-22.03;118.99
67186;HTU21D;54116;53.518;49.398;2023-12-14T15:31:41;-22.05;118.99
67186;HTU21D;54116;53.518;49.398;2023-12-14T15:34:07;-22.06;118.99
67186;HTU21D;54116;53.518;49.398;2023-12-14T15:36:33;-22.12;118.99
67186;HTU21D;54116;53.518;49.398;2023-12-14T15:39:00;-21.97;118.99
67186;HTU21D;54116;53.518;49.398;2023-12-14T15:41:27;-22.04;118.99
67186;HTU21D;54116;53.518;49.398;2023-12-14T15:43:54;-22.08;118.99
67186;HTU21D;54116;53.518;49.398;2023-12-14T15:46:20;-22.01;118.99
67186;HTU21D;54116;53.518;49.398;2023-12-14T15:48:47;-21.98;118.99
67186;HTU21D;54116;53.518;49.398;2023-12-14T15:51:13;-22.00;118.99
67186;HTU21D;54116;53.518;49.398;2023-12-14T15:53:39;-22.00;118.99
67186;HTU21D;54116;53.518;49.398;2023-12-14T15:56:06;-22.16;118.99
67186;HTU21D;54116;53.518;49.398;2023-12-14T15:58:32;-22.23;118.99
67186;HTU21D;54116;53.518;49.398;2023-12-14T16:00:58;-22.27;118.99
67186;HTU21D;54116;53.518;49.398;2023-12-14T16:03:25;-22.26;118.99
67186;HTU21D;54116;53.518;49.398;2023-12-14T16:05:51;-22.11;118.99
67186;HTU21D;54116;53.518;49.398;2023-12-14T16:08:17;-21.92;118.99
67186;HTU21D;54116;53.518;49.398;2023-12-14T16:10:43;-21.73;118.99
67186;HTU21D;54116;53.518;49.398;2023-12-14T16:13:13;-21.62;118.99
67186;HTU21D;54116;53.518;49.398;2023-12-14T16:15:40;-21.62;118.99
67186;HTU21D;54116;53.518;49.398;2023-12-14T16:18:07;-21.46;118.99
67186;HTU21D;54116;53.518;49.398;2023-12-14T16:20:33;-21.36;118.99
67186;HTU21D;54116;53.518;49.398;2023-12-14T16:22:59;-21.30;118.99
67186;HTU21D;54116;53.518;49.398;2023-12-14T16:25:25;-21.28;118.99
67186;HTU21D;54116;53.518;49.398;2023-12-14T16:27:52;-21.25;118.99
67186;HTU21D;54116;53.518;49.398;2023-12-14T16:30:18;-21.14;118.99
67186;HTU21D;54116;53.518;49.398;2023-12-14T16:32:44;-21.15;118.99
67186;HTU21D;54116;53.518;49.398;2023-12-14T16:35:10;-21.11;118.99
67186;HTU21D;54116;53.518;49.398;2023-12-14T16:37:36;-21.12;118.99
67186;HTU21D;54116;53.518;49.398;2023-12-14T16:40:02;-21.09;118.99
67186;HTU21D;54116;53.518;49.398;2023-12-14T16:42:28;-20.96;118.99
67186;HTU21D;54116;53.518;49.398;2023-12-14T16:44:54;-20.99;118.99
67186;HTU21D;54116;53.518;49.398;2023-12-14T16:47:20;-20.98;118.99
67186;HTU21D;54116;53.518;49.398;2023-12-14T16:49:46;-20.97;118.99
67186;HTU21D;54116;53.518;49.398;2023-12-14T16:52:12;-20.83;118.99
67186;HTU21D;54116;53.518;49.398;2023-12-14T16:54:44;-20.82;118.99
67186;HTU21D;54116;53.518;49.398;2023-12-14T16:57:13;-20.90;118.99
67186;HTU21D;54116;53.518;49.398;2023-12-14T16:59:39;-20.75;118.99
67186;HTU21D;54116;53.518;49.398;2023-12-14T17:02:08;-20.69;118.99
67186;HTU21D;54116;53.518;49.398;2023-12-14T17:04:34;-20.72;118.99
67186;HTU21D;54116;53.518;49.398;2023-12-14T17:07:01;-20.72;118.99
67186;HTU21D;54116;53.518;49.398;2023-12-14T17:09:28;-20.75;118.99
67186;HTU21D;54116;53.518;49.398;2023-12-14T17:11:55;-20.73;118.99
67186;HTU21D;54116;53.518;49.398;2023-12-14T17:14:22;-20.73;118.99
67186;HTU21D;54116;53.518;49.398;2023-12-14T17:16:49;-20.70;118.99
67186;HTU21D;54116;53.518;49.398;2023-12-14T17:19:15;-20.71;118.99
67186;HTU21D;54116;53.518;49.398;2023-12-14T17:21:42;-20.77;118.99
67186;HTU21D;54116;53.518;49.398;2023-12-14T17:24:08;-20.73;118.99
67186;HTU21D;54116;53.518;49.398;2023-12-14T17:26:36;-20.75;118.99
67186;HTU21D;54116;53.518;49.398;2023-12-14T17:29:04;-20.84;118.99
67186;HTU21D;54116;53.518;49.398;2023-12-14T17:31:35;-20.81;118.99
67186;HTU21D;54116;53.518;49.398;2023-12-14T17:34:02;-20.84;118.99
67186;HTU21D;54116;53.518;49.398;2023-12-14T17:36:28;-20.83;118.99
67186;HTU21D;54116;53.518;49.398;2023-12-14T17:38:55;-20.87;118.99
67186;HTU21D;54116;53.518;49.398;2023-12-14T17:41:21;-20.94;118.99
67186;HTU21D;54116;53.518;49.398;2023-12-14T17:43:47;-20.96;118.99
67186;HTU21D;54116;53.518;49.398;2023-12-14T17:46:14;-20.95;118.99
67186;HTU21D;54116;53.518;49.398;2023-12-14T17:48:41;-20.93;118.99
67186;HTU21D;54116;53.518;49.398;2023-12-14T17:51:07;-20.96;118.99
67186;HTU21D;54116;53.518;49.398;2023-12-14T17:53:33;-20.96;118.99
67186;HTU21D;54116;53.518;49.398;2023-12-14T17:56:05;-20.95;118.99
67186;HTU21D;54116;53.518;49.398;2023-12-14T17:58:31;-20.98;118.99
67186;HTU21D;54116;53.518;49.398;2023-12-14T18:00:57;-20.97;118.99
67186;HTU21D;54116;53.518;49.398;2023-12-14T18:03:26;-21.07;118.99
67186;HTU21D;54116;53.518;49.398;2023-12-14T18:05:55;-21.13;118.99
67186;HTU21D;54116;53.518;49.398;2023-12-14T18:08:21;-21.31;118.99
67186;HTU21D;54116;53.518;49.398;2023-12-14T18:10:47;-21.30;118.99
67186;HTU21D;54116;53.518;49.398;2023-12-14T18:13:14;-21.27;118.99